Time;durP1;ratioP1;P1;durP2;ratioP2;P2;SDS_P1;SDS_P2;PMS_P1;PMS_P2;Temp;Humidity;BMP_temperature;BMP_pressure;BME280_temperature;BME280_humidity;BME280_pressure;Samples;Min_cycle;Max_cycle;Signal;HPM_P1;HPM_P2
2023/06/03 00:01:58;;;;;;;1.13;0.40;;;11.60;99.90;;;;;;5033337;28;20052;-88
2023/06/03 00:04:24;;;;;;;0.85;0.40;;;11.60;99.90;;;;;;5066265;28;20055;-85
2023/06/03 00:06:50;;;;;;;1.25;0.30;;;11.60;99.90;;;;;;5068081;28;20040;-86
2023/06/03 00:09:15;;;;;;;1.63;0.40;;;11.60;99.90;;;;;;5033076;28;20056;-87
2023/06/03 00:11:42;;;;;;;1.33;0.43;;;11.50;99.90;;;;;;5034356;28;20046;-87
2023/06/03 00:14:08;;;;;;;0.50;0.20;;;10.90;99.90;;;;;;5049589;28;20058;-87
2023/06/03 00:16:33;;;;;;;0.73;0.20;;;11.50;99.90;;;;;;5067619;28;20504;-87
2023/06/03 00:18:59;;;;;;;6.88;2.35;;;11.50;99.90;;;;;;5049955;28;20044;-87
2023/06/03 00:21:25;;;;;;;2.47;1.27;;;11.40;99.90;;;;;;5053546;28;20066;-87
2023/06/03 00:23:51;;;;;;;2.35;0.85;;;11.40;99.90;;;;;;5072147;28;20055;-84
2023/06/03 00:26:16;;;;;;;0.75;0.30;;;11.30;99.90;;;;;;5036892;28;20048;-85
2023/06/03 00:28:42;;;;;;;4.40;0.73;;;11.30;99.90;;;;;;5071889;28;20043;-86
2023/06/03 00:31:08;;;;;;;0.20;0.20;;;11.20;99.90;;;;;;5036513;28;20059;-87
2023/06/03 00:33:34;;;;;;;1.70;0.40;;;11.20;99.90;;;;;;5054967;28;20515;-88
2023/06/03 00:35:59;;;;;;;1.00;0.30;;;11.10;99.90;;;;;;5038166;28;20040;-87
2023/06/03 00:38:25;;;;;;;1.33;0.30;;;11.10;99.90;;;;;;5037710;28;20127;-88
2023/06/03 00:40:51;;;;;;;1.15;0.40;;;11.00;99.90;;;;;;5071429;28;20044;-87
2023/06/03 00:43:16;;;;;;;1.90;0.47;;;11.00;99.90;;;;;;5052816;28;20054;-87
2023/06/03 00:45:42;;;;;;;4.00;0.43;;;11.20;99.90;;;;;;5055140;28;20044;-87
2023/06/03 00:48:08;;;;;;;1.85;0.77;;;10.90;99.90;;;;;;5069205;28;20365;-86
2023/06/03 00:50:35;;;;;;;2.85;0.28;;;10.90;99.90;;;;;;5021603;28;20047;-86
2023/06/03 00:53:02;;;;;;;3.20;0.50;;;10.90;99.90;;;;;;5036849;28;20040;-86
2023/06/03 00:55:29;;;;;;;1.23;0.30;;;10.80;99.90;;;;;;5036851;28;20040;-85
2023/06/03 00:57:54;;;;;;;1.05;0.40;;;11.10;99.90;;;;;;5054263;28;20629;-87
2023/06/03 01:00:20;;;;;;;3.88;0.52;;;10.80;99.90;;;;;;5069440;28;20056;-86
2023/06/03 01:02:46;;;;;;;0.47;0.20;;;10.70;99.90;;;;;;5071676;28;20056;-86
2023/06/03 01:05:13;;;;;;;1.25;0.60;;;10.70;99.90;;;;;;5052191;28;20059;-86
2023/06/03 01:08:00;;;;;;;1.88;0.30;;;10.60;99.90;;;;;;5037364;28;20040;-86
2023/06/03 01:10:25;;;;;;;1.67;0.30;;;10.60;99.90;;;;;;5070987;28;20052;-86
2023/06/03 01:13:15;;;;;;;2.95;0.60;;;10.60;99.90;;;;;;5053521;28;20054;-86
2023/06/03 01:15:45;;;;;;;1.05;0.30;;;10.50;99.90;;;;;;5072337;28;20376;-85
2023/06/03 01:18:16;;;;;;;0.88;0.45;;;10.50;99.90;;;;;;5069058;28;20048;-86
2023/06/03 01:20:43;;;;;;;0.77;0.30;;;10.70;99.90;;;;;;5070873;28;20048;-86
2023/06/03 01:23:28;;;;;;;2.17;0.30;;;10.40;99.90;;;;;;5070858;28;20103;-86
2023/06/03 01:25:57;;;;;;;1.33;0.38;;;10.30;99.90;;;;;;5055960;28;20495;-87
2023/06/03 01:28:23;;;;;;;1.63;0.45;;;10.90;99.90;;;;;;5074164;28;20054;-86
2023/06/03 01:30:53;;;;;;;1.27;0.40;;;10.30;99.90;;;;;;5056160;28;20043;-89
2023/06/03 01:33:20;;;;;;;2.88;0.50;;;10.20;99.90;;;;;;5056891;28;20055;-87
2023/06/03 01:35:48;;;;;;;1.90;0.60;;;10.20;99.90;;;;;;5036480;28;20044;-86
2023/06/03 01:38:14;;;;;;;9.13;0.60;;;10.20;99.90;;;;;;5053818;28;20108;-85
2023/06/03 01:40:40;;;;;;;1.27;0.22;;;10.10;99.90;;;;;;5071407;28;20036;-86
2023/06/03 01:43:06;;;;;;;4.60;0.47;;;10.10;99.90;;;;;;5069080;28;20073;-86
2023/06/03 01:45:32;;;;;;;2.70;0.63;;;10.00;99.90;;;;;;5071253;28;20123;-87
2023/06/03 01:47:59;;;;;;;1.52;0.55;;;9.90;99.90;;;;;;5051405;28;20048;-86
2023/06/03 01:50:25;;;;;;;1.52;0.43;;;9.90;99.90;;;;;;5052911;28;20051;-87
2023/06/03 01:52:51;;;;;;;0.77;0.40;;;9.80;99.90;;;;;;5067678;28;20493;-86
2023/06/03 01:55:17;;;;;;;2.22;0.57;;;10.00;99.90;;;;;;5019629;28;20040;-86
2023/06/03 01:57:43;;;;;;;2.55;0.57;;;9.80;99.90;;;;;;5035403;28;20044;-87
2023/06/03 02:00:10;;;;;;;2.00;0.60;;;9.70;99.90;;;;;;5066747;28;20040;-87
2023/06/03 02:02:36;;;;;;;4.82;0.50;;;9.70;99.90;;;;;;5068809;28;20158;-87
2023/06/03 02:05:03;;;;;;;4.30;0.40;;;10.10;99.90;;;;;;5066801;28;20441;-87
2023/06/03 02:07:32;;;;;;;2.80;0.50;;;9.60;99.90;;;;;;5068900;28;20055;-86
2023/06/03 02:09:58;;;;;;;2.65;0.40;;;9.70;99.90;;;;;;5067144;28;20032;-86
2023/06/03 02:12:24;;;;;;;1.20;0.38;;;9.60;99.90;;;;;;5051153;28;20083;-87
2023/06/03 02:14:53;;;;;;;0.90;0.43;;;9.60;99.90;;;;;;5051995;28;20109;-87
2023/06/03 02:17:22;;;;;;;1.63;0.40;;;11.10;99.90;;;;;;5050139;28;20141;-87
2023/06/03 02:19:48;;;;;;;1.00;0.32;;;9.60;99.90;;;;;;5052122;28;20102;-87
2023/06/03 02:22:14;;;;;;;1.77;0.50;;;10.10;99.90;;;;;;5050008;28;20044;-87
2023/06/03 02:24:40;;;;;;;0.68;0.40;;;9.90;99.90;;;;;;5035606;28;20050;-87
2023/06/03 02:27:07;;;;;;;2.42;0.60;;;9.50;99.90;;;;;;5051048;28;20048;-87
2023/06/03 02:29:32;;;;;;;0.93;0.40;;;9.60;99.90;;;;;;5051805;28;20055;-86
2023/06/03 02:31:59;;;;;;;1.42;0.55;;;9.60;99.90;;;;;;5051900;28;20048;-87
2023/06/03 02:34:26;;;;;;;1.58;0.60;;;9.60;99.90;;;;;;5067201;28;20051;-87
2023/06/03 02:36:52;;;;;;;0.77;0.40;;;9.60;99.90;;;;;;5068659;28;20044;-87
2023/06/03 02:39:18;;;;;;;0.77;0.40;;;9.60;99.90;;;;;;5050448;28;20044;-88
2023/06/03 02:41:46;;;;;;;1.48;0.75;;;10.30;99.90;;;;;;5051638;28;20556;-86
2023/06/03 02:44:16;;;;;;;1.23;0.50;;;9.60;99.90;;;;;;5066464;28;20059;-86
2023/06/03 02:46:42;;;;;;;0.98;0.40;;;9.60;99.90;;;;;;5050961;28;20043;-86
2023/06/03 02:49:09;;;;;;;1.30;0.40;;;10.30;99.90;;;;;;5051925;28;20131;-87
2023/06/03 02:51:36;;;;;;;2.70;0.60;;;9.60;99.90;;;;;;5049765;28;20066;-86
2023/06/03 02:54:03;;;;;;;1.63;0.52;;;9.60;99.90;;;;;;5067601;28;20207;-86
2023/06/03 02:56:29;;;;;;;0.90;0.43;;;9.60;99.90;;;;;;5065840;28;20090;-87
2023/06/03 02:58:54;;;;;;;4.03;0.52;;;11.00;99.90;;;;;;5067859;28;20048;-87
2023/06/03 03:01:21;;;;;;;1.38;0.40;;;9.60;99.90;;;;;;5049955;28;20109;-86
2023/06/03 03:03:47;;;;;;;0.85;0.57;;;9.60;99.90;;;;;;5046448;28;20131;-86
2023/06/03 03:06:19;;;;;;;0.60;0.40;;;9.60;99.90;;;;;;5047041;28;20044;-87
2023/06/03 03:08:46;;;;;;;2.13;0.70;;;8.00;99.90;;;;;;5030345;28;20450;-87
2023/06/03 03:11:13;;;;;;;1.25;0.40;;;10.90;99.90;;;;;;5047453;28;20575;-87
2023/06/03 03:13:39;;;;;;;1.52;0.50;;;10.80;99.90;;;;;;5062236;28;20055;-87
2023/06/03 03:16:05;;;;;;;1.17;0.47;;;9.60;99.90;;;;;;5047925;28;20381;-87
2023/06/03 03:18:30;;;;;;;1.27;0.40;;;9.60;99.90;;;;;;5046280;28;20074;-87
2023/06/03 03:20:56;;;;;;;0.85;0.30;;;9.60;99.90;;;;;;5047347;28;20097;-87
2023/06/03 03:23:22;;;;;;;3.70;0.47;;;9.60;99.90;;;;;;5064300;28;20048;-86
2023/06/03 03:25:48;;;;;;;1.42;0.77;;;9.60;99.90;;;;;;5046591;28;20087;-86
2023/06/03 03:28:14;;;;;;;1.88;0.57;;;10.00;99.90;;;;;;5064531;28;20357;-87
2023/06/03 03:30:40;;;;;;;2.15;0.77;;;9.60;99.90;;;;;;5062594;28;20447;-86
2023/06/03 03:33:06;;;;;;;2.00;0.60;;;9.50;99.90;;;;;;5064516;28;20036;-87
2023/06/03 03:35:32;;;;;;;1.30;0.60;;;9.50;99.90;;;;;;5046393;28;20608;-86
2023/06/03 03:38:06;;;;;;;2.50;0.60;;;9.50;99.90;;;;;;5064074;28;20718;-87
2023/06/03 03:40:35;;;;;;;3.50;0.60;;;9.40;99.90;;;;;;5064059;28;20131;-86
2023/06/03 03:43:04;;;;;;;1.45;0.40;;;9.40;99.90;;;;;;5046197;28;20054;-86
2023/06/03 03:45:31;;;;;;;1.20;0.52;;;10.20;99.90;;;;;;5031429;28;20535;-87
2023/06/03 03:48:05;;;;;;;3.30;0.60;;;10.40;99.90;;;;;;5062352;28;20159;-87
2023/06/03 03:50:41;;;;;;;1.55;0.52;;;9.40;99.90;;;;;;5063956;28;20353;-86
2023/06/03 03:53:10;;;;;;;1.95;0.50;;;9.40;99.90;;;;;;5046390;28;20041;-87
2023/06/03 03:55:50;;;;;;;0.98;0.60;;;9.10;99.90;;;;;;5065492;28;20056;-86
2023/06/03 03:58:26;;;;;;;2.88;0.50;;;9.50;99.90;;;;;;5067879;28;20048;-87
2023/06/03 04:00:59;;;;;;;1.33;0.50;;;9.50;99.90;;;;;;5066059;28;20084;-87
2023/06/03 04:03:25;;;;;;;1.90;0.55;;;9.60;99.90;;;;;;5050007;28;20116;-87
2023/06/03 04:05:52;;;;;;;0.80;0.50;;;9.60;99.90;;;;;;5049700;28;20052;-86
2023/06/03 04:08:39;;;;;;;3.30;0.50;;;10.30;99.90;;;;;;5050673;28;20499;-87
2023/06/03 04:11:07;;;;;;;1.45;0.60;;;9.70;99.90;;;;;;5050793;28;20134;-87
2023/06/03 04:13:36;;;;;;;1.13;0.35;;;9.80;99.90;;;;;;5066435;28;20581;-86
2023/06/03 04:16:34;;;;;;;3.55;0.73;;;9.80;99.90;;;;;;5067597;28;20076;-87
2023/06/03 04:19:03;;;;;;;1.92;0.60;;;9.90;99.90;;;;;;5050736;28;20438;-87
2023/06/03 04:21:29;;;;;;;3.70;0.63;;;10.10;99.90;;;;;;5050102;28;20095;-87
2023/06/03 04:23:54;;;;;;;1.25;0.40;;;10.00;99.90;;;;;;5067228;28;20052;-87
2023/06/03 04:26:20;;;;;;;0.70;0.30;;;10.00;99.90;;;;;;5049997;28;20040;-86
2023/06/03 04:28:46;;;;;;;0.60;0.40;;;10.10;99.90;;;;;;5050889;28;20179;-86
2023/06/03 04:31:12;;;;;;;0.75;0.30;;;10.20;99.90;;;;;;5016136;28;20260;-87
2023/06/03 04:33:37;;;;;;;1.50;0.45;;;10.40;99.90;;;;;;5066987;28;20063;-86
2023/06/03 04:36:03;;;;;;;1.35;0.73;;;10.40;99.90;;;;;;5049685;28;20040;-87
2023/06/03 04:38:29;;;;;;;2.17;0.50;;;10.50;99.90;;;;;;5067196;28;20105;-87
2023/06/03 04:40:55;;;;;;;1.85;0.50;;;10.60;99.90;;;;;;5032890;28;20403;-86
2023/06/03 04:43:22;;;;;;;3.85;0.63;;;10.70;99.90;;;;;;5067510;28;20048;-86
2023/06/03 04:45:49;;;;;;;1.42;0.60;;;10.90;99.90;;;;;;5049767;28;20094;-86
2023/06/03 04:48:16;;;;;;;3.28;0.90;;;10.80;99.90;;;;;;5066333;28;20040;-87
2023/06/03 04:50:44;;;;;;;1.65;0.50;;;11.00;99.90;;;;;;5066523;28;20525;-86
2023/06/03 04:53:13;;;;;;;0.82;0.50;;;11.00;99.90;;;;;;5049593;28;20392;-86
2023/06/03 04:55:45;;;;;;;1.90;0.50;;;11.10;99.90;;;;;;5048925;28;20041;-87
2023/06/03 04:58:11;;;;;;;2.93;1.20;;;11.20;99.90;;;;;;5049108;28;20389;-86
2023/06/03 05:00:37;;;;;;;2.95;1.80;;;11.30;99.90;;;;;;5065483;28;20070;-87
2023/06/03 05:03:08;;;;;;;0.95;0.47;;;11.50;99.90;;;;;;5048256;28;20052;-86
2023/06/03 05:05:35;;;;;;;0.98;0.55;;;11.60;99.90;;;;;;5047734;28;20041;-87
2023/06/03 05:08:01;;;;;;;1.88;0.68;;;11.70;99.90;;;;;;5048666;28;20448;-88
2023/06/03 05:10:27;;;;;;;1.38;0.40;;;11.70;99.90;;;;;;5064059;28;20091;-88
2023/06/03 05:12:53;;;;;;;1.20;0.70;;;11.80;99.90;;;;;;5064255;28;20076;-88
2023/06/03 05:15:19;;;;;;;2.58;0.85;;;12.20;99.90;;;;;;5046775;28;20047;-87
2023/06/03 05:17:45;;;;;;;4.18;0.73;;;11.90;99.90;;;;;;5048253;28;20051;-87
2023/06/03 05:20:11;;;;;;;1.38;0.50;;;11.90;99.90;;;;;;5064685;28;20475;-87
2023/06/03 05:22:37;;;;;;;2.15;0.70;;;11.80;99.90;;;;;;5047997;28;20074;-86
2023/06/03 05:25:06;;;;;;;1.30;0.50;;;11.90;99.90;;;;;;5064403;28;20040;-87
2023/06/03 05:27:32;;;;;;;1.90;0.55;;;11.90;99.90;;;;;;5047877;28;20711;-88
2023/06/03 05:29:58;;;;;;;2.25;0.60;;;12.00;99.90;;;;;;5047583;28;20359;-86
2023/06/03 05:32:24;;;;;;;2.25;0.65;;;12.10;99.90;;;;;;5030423;28;20522;-88
2023/06/03 05:34:49;;;;;;;9.57;0.63;;;12.10;99.90;;;;;;5031079;28;20131;-87
2023/06/03 05:37:15;;;;;;;1.33;0.40;;;12.20;99.90;;;;;;5030005;28;20113;-88
2023/06/03 05:39:41;;;;;;;1.98;0.68;;;12.30;99.90;;;;;;5030779;28;20048;-87
2023/06/03 05:42:07;;;;;;;3.58;0.60;;;12.40;99.90;;;;;;5047457;28;20044;-88
2023/06/03 05:44:32;;;;;;;2.42;0.60;;;12.50;99.90;;;;;;5046436;28;20045;-87
2023/06/03 05:46:58;;;;;;;1.95;0.60;;;12.60;99.90;;;;;;5014015;28;20041;-87
2023/06/03 05:49:24;;;;;;;7.03;1.55;;;12.70;99.90;;;;;;5014202;28;20041;-87
2023/06/03 05:51:50;;;;;;;0.88;0.32;;;12.90;99.90;;;;;;5014170;28;20396;-87
2023/06/03 05:54:15;;;;;;;1.15;0.40;;;12.90;99.90;;;;;;5029208;28;20043;-87
2023/06/03 05:56:41;;;;;;;1.90;0.38;;;13.00;99.90;;;;;;5046533;28;20053;-87
2023/06/03 05:59:07;;;;;;;1.90;0.35;;;13.10;99.90;;;;;;5047405;28;20036;-87
2023/06/03 06:01:33;;;;;;;2.30;0.63;;;13.20;99.90;;;;;;5008782;28;1113491;-87
2023/06/03 06:04:00;;;;;;;0.82;0.30;;;13.30;99.90;;;;;;5067834;28;20055;-88
2023/06/03 06:06:26;;;;;;;1.58;0.50;;;13.40;99.90;;;;;;5068007;28;20426;-87
2023/06/03 06:08:51;;;;;;;3.17;0.30;;;13.50;99.90;;;;;;5051463;28;20044;-88
2023/06/03 06:11:18;;;;;;;3.75;0.60;;;13.60;99.90;;;;;;5050932;28;20051;-88
2023/06/03 06:13:43;;;;;;;1.67;0.35;;;13.70;99.90;;;;;;5068307;28;20048;-87
2023/06/03 06:16:10;;;;;;;1.48;0.57;;;13.70;99.90;;;;;;5050545;28;20132;-86
2023/06/03 06:18:35;;;;;;;1.90;0.50;;;13.90;99.90;;;;;;5067020;28;20093;-87
2023/06/03 06:21:01;;;;;;;3.67;0.50;;;13.90;99.90;;;;;;5034326;28;20052;-88
2023/06/03 06:23:27;;;;;;;4.55;0.43;;;15.60;99.90;;;;;;5017060;28;20054;-88
2023/06/03 06:25:55;;;;;;;0.73;0.40;;;14.10;99.90;;;;;;5034198;28;20494;-87
2023/06/03 06:28:31;;;;;;;0.70;0.30;;;14.30;99.90;;;;;;5066616;28;20093;-88
2023/06/03 06:31:01;;;;;;;0.93;0.25;;;14.40;99.90;;;;;;5034826;28;20162;-88
2023/06/03 06:33:28;;;;;;;0.75;0.43;;;14.50;99.90;;;;;;5050592;28;20047;-87
2023/06/03 06:35:54;;;;;;;1.65;0.43;;;14.60;99.90;;;;;;5033659;28;20083;-86
2023/06/03 06:38:21;;;;;;;2.33;0.50;;;14.70;99.90;;;;;;5034139;28;20075;-90
2023/06/03 06:40:50;;;;;;;0.93;0.50;;;14.90;99.90;;;;;;5033488;28;20059;-87
2023/06/03 06:43:16;;;;;;;0.70;0.40;;;15.00;99.90;;;;;;5050042;28;20047;-86
2023/06/03 06:45:42;;;;;;;1.45;0.50;;;15.20;99.90;;;;;;5032811;28;20071;-87
2023/06/03 06:48:12;;;;;;;2.25;0.30;;;15.30;99.90;;;;;;5033996;28;20067;-86
2023/06/03 06:51:07;;;;;;;1.92;0.50;;;15.40;99.90;;;;;;5049800;28;20060;-85
2023/06/03 06:53:36;;;;;;;2.17;0.57;;;15.60;99.90;;;;;;5044487;28;20444;-85
2023/06/03 06:56:07;;;;;;;1.52;0.50;;;15.80;99.90;;;;;;5066213;28;20399;-84
2023/06/03 06:58:35;;;;;;;1.02;0.50;;;15.90;99.90;;;;;;5048168;28;20141;-85
2023/06/03 07:01:05;;;;;;;0.88;0.43;;;16.10;99.90;;;;;;5032890;28;20060;-83
2023/06/03 07:03:31;;;;;;;1.27;0.47;;;15.60;99.90;;;;;;5016633;28;20044;-84
2023/06/03 07:05:56;;;;;;;1.75;0.55;;;16.50;99.90;;;;;;5065806;28;20046;-85
2023/06/03 07:08:23;;;;;;;1.25;0.20;;;16.60;99.90;;;;;;5049225;28;20040;-87
2023/06/03 07:10:50;;;;;;;0.80;0.30;;;16.70;99.90;;;;;;5049198;28;20051;-87
2023/06/03 07:13:16;;;;;;;1.42;0.40;;;16.90;99.90;;;;;;5049903;28;20044;-87
2023/06/03 07:15:43;;;;;;;1.17;0.43;;;17.10;99.90;;;;;;5016295;28;20089;-87
2023/06/03 07:18:10;;;;;;;0.50;0.20;;;17.20;99.90;;;;;;5049819;28;20055;-86
2023/06/03 07:20:40;;;;;;;1.40;0.50;;;17.40;99.80;;;;;;5032664;28;20032;-87
2023/06/03 07:23:13;;;;;;;0.82;0.28;;;17.50;99.30;;;;;;5049695;28;20044;-89
2023/06/03 07:25:44;;;;;;;2.53;1.15;;;17.50;98.80;;;;;;5049011;28;20058;-87
2023/06/03 07:28:12;;;;;;;2.05;0.40;;;17.60;98.60;;;;;;5048927;28;20051;-85
2023/06/03 07:30:38;;;;;;;0.75;0.30;;;17.60;98.60;;;;;;5032668;28;20038;-89
2023/06/03 07:33:08;;;;;;;0.88;0.50;;;17.50;98.50;;;;;;5066384;28;20043;-87
2023/06/03 07:35:35;;;;;;;2.72;0.30;;;17.40;98.30;;;;;;5050704;28;20141;-88
2023/06/03 07:38:02;;;;;;;0.60;0.40;;;17.30;98.20;;;;;;5032580;28;20050;-90
2023/06/03 07:40:42;;;;;;;0.73;0.30;;;17.30;98.40;;;;;;5033466;28;20040;-86
2023/06/03 07:43:09;;;;;;;0.90;0.30;;;17.30;98.30;;;;;;5049732;28;20048;-86
2023/06/03 07:45:36;;;;;;;1.23;0.25;;;17.20;98.50;;;;;;5032744;28;20044;-86
2023/06/03 07:48:03;;;;;;;3.42;1.42;;;17.20;98.40;;;;;;5034862;28;20044;-87
2023/06/03 07:50:30;;;;;;;1.40;0.50;;;17.10;98.40;;;;;;5017398;28;20551;-84
2023/06/03 07:53:00;;;;;;;1.95;0.40;;;17.00;98.40;;;;;;5019147;28;20138;-86
2023/06/03 07:55:28;;;;;;;1.10;0.30;;;17.00;98.50;;;;;;5049264;28;20044;-85
2023/06/03 07:57:54;;;;;;;0.93;0.30;;;17.00;98.70;;;;;;5033572;28;20044;-84
2023/06/03 08:00:20;;;;;;;1.08;0.40;;;16.60;98.60;;;;;;5017076;28;20069;-85
2023/06/03 08:02:46;;;;;;;1.00;0.40;;;16.90;98.60;;;;;;5016338;28;20079;-87
2023/06/03 08:05:14;;;;;;;0.98;0.30;;;16.90;98.50;;;;;;5017979;28;20048;-85
2023/06/03 08:07:42;;;;;;;0.68;0.20;;;17.00;98.50;;;;;;5017236;28;20411;-86
2023/06/03 08:10:24;;;;;;;4.38;1.35;;;17.00;98.30;;;;;;5034149;28;20481;-85
2023/06/03 08:12:50;;;;;;;1.48;0.20;;;17.00;98.20;;;;;;5048923;28;20051;-86
2023/06/03 08:15:31;;;;;;;0.43;0.30;;;17.00;98.50;;;;;;5032958;28;20040;-85
2023/06/03 08:17:57;;;;;;;2.67;0.57;;;17.00;98.00;;;;;;5049694;28;20074;-85
2023/06/03 08:20:27;;;;;;;3.22;0.30;;;17.00;98.00;;;;;;5031430;28;20109;-85
2023/06/03 08:22:53;;;;;;;0.57;0.20;;;17.10;97.90;;;;;;5049091;28;20173;-86
2023/06/03 08:25:19;;;;;;;0.88;0.40;;;17.20;97.70;;;;;;5049089;28;20419;-85
2023/06/03 08:27:45;;;;;;;1.35;0.35;;;17.40;97.50;;;;;;5049694;28;20568;-85
2023/06/03 08:30:12;;;;;;;3.50;0.40;;;17.50;97.50;;;;;;5065453;28;20140;-86
2023/06/03 08:32:38;;;;;;;0.82;0.30;;;17.70;97.40;;;;;;5049034;28;20048;-85
2023/06/03 08:35:08;;;;;;;1.05;0.30;;;17.80;97.00;;;;;;5032937;28;20047;-85
2023/06/03 08:37:35;;;;;;;1.90;0.40;;;17.80;96.80;;;;;;5064326;28;20051;-85
2023/06/03 08:40:05;;;;;;;2.30;0.45;;;17.80;96.60;;;;;;5049950;28;20499;-86
2023/06/03 08:42:41;;;;;;;2.55;0.30;;;17.70;96.40;;;;;;5069437;28;20181;-86
2023/06/03 08:45:17;;;;;;;0.50;0.35;;;17.60;96.30;;;;;;5054728;28;20078;-85
2023/06/03 08:48:05;;;;;;;0.35;0.20;;;17.70;96.20;;;;;;5070983;28;20391;-85
2023/06/03 08:50:33;;;;;;;1.65;0.30;;;17.80;96.10;;;;;;5070179;28;20048;-85
2023/06/03 08:53:03;;;;;;;3.22;0.50;;;18.00;96.30;;;;;;5054883;28;20040;-85
2023/06/03 08:55:30;;;;;;;2.80;0.50;;;18.30;96.40;;;;;;5052726;28;20133;-85
2023/06/03 08:58:34;;;;;;;0.45;0.20;;;18.50;96.20;;;;;;5054577;28;20056;-86
2023/06/03 09:01:02;;;;;;;2.83;0.30;;;18.80;95.90;;;;;;5053002;28;20080;-84
2023/06/03 09:03:28;;;;;;;2.58;0.45;;;19.00;95.40;;;;;;5051315;28;20075;-84
2023/06/03 09:05:54;;;;;;;1.55;0.20;;;19.10;94.60;;;;;;5070306;28;20048;-86
2023/06/03 09:08:22;;;;;;;1.08;0.40;;;19.30;94.00;;;;;;5050895;28;20071;-86
2023/06/03 09:10:48;;;;;;;1.08;0.32;;;19.40;93.40;;;;;;5069534;28;20040;-86
2023/06/03 09:13:16;;;;;;;0.75;0.30;;;19.50;92.70;;;;;;5050795;28;20048;-85
2023/06/03 09:15:43;;;;;;;1.10;0.30;;;19.60;92.10;;;;;;5086586;28;20044;-86
2023/06/03 09:18:09;;;;;;;3.00;0.30;;;19.70;91.50;;;;;;5052149;28;20043;-85
2023/06/03 09:20:36;;;;;;;2.72;1.42;;;19.80;91.00;;;;;;5067191;28;20080;-86
2023/06/03 09:23:02;;;;;;;0.55;0.30;;;19.90;90.80;;;;;;5052632;28;20079;-86
2023/06/03 09:25:28;;;;;;;0.50;0.30;;;20.10;90.40;;;;;;5050203;28;20036;-86
2023/06/03 09:27:54;;;;;;;1.65;0.40;;;20.20;90.00;;;;;;5051966;28;20043;-85
2023/06/03 09:30:20;;;;;;;1.00;0.40;;;20.30;89.70;;;;;;5067014;28;20083;-85
2023/06/03 09:32:46;;;;;;;1.85;0.30;;;20.40;88.80;;;;;;5035218;28;20052;-85
2023/06/03 09:35:13;;;;;;;0.47;0.20;;;20.40;88.30;;;;;;5051416;28;20080;-86
2023/06/03 09:37:38;;;;;;;1.48;0.52;;;20.60;87.70;;;;;;5067324;28;20451;-85
2023/06/03 09:40:23;;;;;;;1.00;0.13;;;20.60;86.60;;;;;;5068508;28;20048;-85
2023/06/03 09:42:48;;;;;;;0.75;0.20;;;20.70;85.80;;;;;;5049581;28;20033;-87
2023/06/03 09:45:31;;;;;;;0.55;0.30;;;20.80;84.80;;;;;;5052318;28;20117;-85
2023/06/03 09:47:58;;;;;;;0.40;0.20;;;20.90;83.30;;;;;;5051781;28;20387;-84
2023/06/03 09:50:29;;;;;;;0.52;0.20;;;21.00;82.80;;;;;;5067424;28;20407;-85
2023/06/03 09:52:55;;;;;;;0.45;0.25;;;21.00;82.20;;;;;;5067651;28;20055;-85
2023/06/03 09:55:29;;;;;;;0.52;0.20;;;21.00;81.80;;;;;;5049952;28;20479;-84
2023/06/03 09:58:12;;;;;;;0.82;0.30;;;21.10;82.00;;;;;;5068785;28;20153;-85
2023/06/03 10:00:51;;;;;;;1.08;0.50;;;21.20;80.10;;;;;;5067197;28;20060;-85
2023/06/03 10:03:22;;;;;;;1.55;0.30;;;21.20;78.60;;;;;;5033039;28;20054;-85
2023/06/03 10:05:48;;;;;;;1.13;0.40;;;21.30;78.00;;;;;;5051522;28;20491;-85
2023/06/03 10:08:14;;;;;;;0.50;0.25;;;21.40;77.70;;;;;;5049852;28;20423;-85
2023/06/03 10:10:57;;;;;;;1.77;0.30;;;21.50;77.70;;;;;;5051773;28;20044;-86
2023/06/03 10:13:23;;;;;;;;;;;21.50;73.80;;;;;;5067000;28;20051;-86
2023/06/03 10:15:52;;;;;;;0.98;0.45;;;21.60;74.10;;;;;;5051071;28;19920;-85
2023/06/03 10:18:33;;;;;;;0.90;0.38;;;21.50;76.10;;;;;;5051746;28;20043;-86
2023/06/03 10:21:03;;;;;;;1.05;0.20;;;21.40;74.20;;;;;;5065792;28;20119;-85
2023/06/03 10:23:29;;;;;;;0.52;0.20;;;21.40;74.10;;;;;;5068400;28;20395;-86
2023/06/03 10:25:55;;;;;;;2.78;0.40;;;21.40;73.90;;;;;;5049597;28;20039;-86
2023/06/03 10:28:21;;;;;;;1.08;0.38;;;21.50;73.50;;;;;;5034892;28;20076;-86
2023/06/03 10:30:49;;;;;;;0.70;0.30;;;21.60;73.40;;;;;;5050082;28;20486;-86
2023/06/03 10:33:18;;;;;;;2.38;0.38;;;21.60;72.20;;;;;;5050039;28;20052;-86
2023/06/03 10:35:46;;;;;;;1.00;0.40;;;21.70;72.00;;;;;;5067404;28;20050;-85
2023/06/03 10:38:14;;;;;;;0.70;0.20;;;21.70;71.50;;;;;;5065478;28;20055;-85
2023/06/03 10:40:41;;;;;;;0.98;0.43;;;21.70;71.00;;;;;;5051408;28;20526;-86
2023/06/03 10:43:10;;;;;;;0.85;0.40;;;21.80;71.60;;;;;;5049042;28;20047;-86
2023/06/03 10:45:36;;;;;;;1.35;0.40;;;21.90;71.20;;;;;;5050883;28;20046;-86
2023/06/03 10:48:12;;;;;;;1.25;0.30;;;21.90;70.10;;;;;;5049742;28;20130;-86
2023/06/03 10:50:47;;;;;;;2.85;0.50;;;21.80;67.60;;;;;;5049079;28;20024;-86
2023/06/03 10:53:55;;;;;;;3.10;0.40;;;21.80;68.40;;;;;;5068284;28;20465;-86
2023/06/03 10:56:35;;;;;;;1.10;0.30;;;21.90;68.80;;;;;;5049751;28;20039;-85
2023/06/03 10:59:07;;;;;;;1.40;0.30;;;22.10;69.70;;;;;;5066628;28;20040;-86
2023/06/03 11:01:58;;;;;;;0.77;0.32;;;22.20;69.70;;;;;;5067105;28;20044;-86
2023/06/03 11:04:25;;;;;;;1.23;0.38;;;22.40;67.00;;;;;;5065458;28;20399;-85
2023/06/03 11:06:52;;;;;;;3.88;0.43;;;22.50;68.40;;;;;;5051182;28;20043;-87
2023/06/03 11:09:38;;;;;;;0.65;0.20;;;22.50;68.20;;;;;;5031939;28;20044;-87
2023/06/03 11:12:09;;;;;;;1.98;0.55;;;22.60;66.90;;;;;;5065456;28;20078;-87
2023/06/03 11:14:41;;;;;;;2.20;0.40;;;22.60;66.80;;;;;;5067712;28;20043;-87
2023/06/03 11:17:12;;;;;;;0.50;0.20;;;22.60;66.80;;;;;;5064164;28;20145;-86
2023/06/03 11:19:40;;;;;;;0.30;0.20;;;22.80;66.60;;;;;;5066755;28;20071;-87
2023/06/03 11:22:08;;;;;;;0.98;0.30;;;22.80;65.90;;;;;;5048804;28;20365;-86
2023/06/03 11:24:43;;;;;;;0.80;0.20;;;22.90;65.10;;;;;;5032854;28;20131;-87
2023/06/03 11:27:14;;;;;;;1.42;0.30;;;22.90;64.50;;;;;;5049559;28;20576;-87
2023/06/03 11:29:46;;;;;;;1.47;0.20;;;23.00;64.90;;;;;;5064737;28;20048;-86
2023/06/03 11:32:13;;;;;;;0.35;0.20;;;22.90;64.00;;;;;;5085736;28;20051;-86
2023/06/03 11:34:38;;;;;;;0.98;0.30;;;22.90;64.70;;;;;;5064791;28;20073;-86
2023/06/03 11:37:04;;;;;;;2.65;0.50;;;22.90;65.00;;;;;;5033321;28;20439;-87
2023/06/03 11:40:00;;;;;;;0.38;0.13;;;22.90;64.20;;;;;;5048594;28;20043;-87
2023/06/03 11:42:27;;;;;;;0.77;0.20;;;23.10;61.60;;;;;;5047760;28;20074;-87
2023/06/03 11:44:53;;;;;;;3.15;0.30;;;23.10;63.60;;;;;;5066639;28;20084;-87
2023/06/03 11:47:19;;;;;;;0.82;0.40;;;23.20;63.40;;;;;;5047977;28;20097;-86
2023/06/03 11:49:45;;;;;;;1.75;0.25;;;23.30;63.40;;;;;;5050537;28;20048;-86
2023/06/03 11:52:11;;;;;;;1.33;0.50;;;23.30;62.80;;;;;;5049158;28;20062;-87
2023/06/03 11:54:38;;;;;;;0.43;0.30;;;23.40;62.90;;;;;;5049271;28;20534;-86
2023/06/03 11:57:05;;;;;;;0.73;0.30;;;23.60;63.40;;;;;;5065435;28;20139;-86
2023/06/03 11:59:38;;;;;;;0.88;0.22;;;23.80;63.10;;;;;;5032157;28;20467;-85
2023/06/03 12:02:05;;;;;;;1.55;0.30;;;23.80;61.90;;;;;;5051747;28;20064;-92
2023/06/03 12:04:32;;;;;;;0.60;0.30;;;23.80;62.20;;;;;;5052458;28;20101;-95
2023/06/03 12:06:59;;;;;;;2.95;0.25;;;23.80;62.70;;;;;;5053455;28;20584;-88
2023/06/03 12:09:27;;;;;;;0.88;0.30;;;23.80;62.60;;;;;;5048612;28;20048;-85
2023/06/03 12:11:56;;;;;;;0.93;0.28;;;23.80;62.50;;;;;;5048489;28;20036;-87
2023/06/03 12:14:23;;;;;;;1.15;0.32;;;23.90;61.70;;;;;;5049316;28;20403;-88
2023/06/03 12:16:50;;;;;;;1.45;0.30;;;23.90;61.20;;;;;;5067094;28;20040;-87
2023/06/03 12:19:16;;;;;;;0.95;0.50;;;22.90;60.30;;;;;;5070511;28;20059;-84
2023/06/03 12:21:42;;;;;;;4.95;0.30;;;23.90;60.60;;;;;;5051508;28;20123;-90
2023/06/03 12:24:18;;;;;;;2.22;0.40;;;23.90;61.70;;;;;;5021750;28;20526;-89
2023/06/03 12:26:44;;;;;;;1.70;0.45;;;24.00;60.70;;;;;;5036572;28;20122;-87
2023/06/03 12:29:12;;;;;;;0.75;0.30;;;24.00;60.40;;;;;;5039215;28;20040;-87
2023/06/03 12:31:38;;;;;;;0.80;0.32;;;24.00;60.50;;;;;;5036488;28;20048;-86
2023/06/03 12:34:04;;;;;;;0.57;0.20;;;23.90;61.00;;;;;;5052541;28;20079;-87
2023/06/03 12:36:49;;;;;;;7.68;0.55;;;23.90;59.90;;;;;;5038163;28;20517;-87
2023/06/03 12:39:17;;;;;;;4.28;0.73;;;23.90;58.60;;;;;;5033738;28;20044;-86
2023/06/03 12:41:53;;;;;;;1.08;0.25;;;23.80;60.40;;;;;;5068933;28;20123;-87
2023/06/03 12:44:20;;;;;;;2.08;0.30;;;24.00;60.60;;;;;;5035112;28;20101;-87
2023/06/03 12:47:06;;;;;;;1.45;0.45;;;23.90;60.40;;;;;;5018836;28;20053;-91
2023/06/03 12:49:31;;;;;;;0.93;0.32;;;23.90;60.50;;;;;;5037807;28;20055;-89
2023/06/03 12:52:13;;;;;;;0.60;0.35;;;23.90;61.00;;;;;;5051620;28;20044;-88
2023/06/03 12:54:40;;;;;;;2.65;0.32;;;23.90;61.20;;;;;;5088120;28;20144;-88
2023/06/03 12:57:07;;;;;;;0.60;0.22;;;23.90;61.00;;;;;;5051939;28;20044;-89